sensor_id;sensor_type;location;lat;lon;timestamp;P1;durP1;ratioP1;P2;durP2;ratioP2
70733;SDS011;58320;48.804;9.252;2022-11-22T00:00:05;8.88;;;3.70;;
70733;SDS011;58320;48.804;9.252;2022-11-22T00:02:32;7.88;;;3.60;;
70733;SDS011;58320;48.804;9.252;2022-11-22T00:04:59;7.75;;;3.60;;
70733;SDS011;58320;48.804;9.252;2022-11-22T00:07:25;6.40;;;3.20;;
70733;SDS011;58320;48.804;9.252;2022-11-22T00:09:50;8.05;;;3.90;;
70733;SDS011;58320;48.804;9.252;2022-11-22T00:12:16;7.57;;;3.83;;
70733;SDS011;58320;48.804;9.252;2022-11-22T00:14:42;7.03;;;3.57;;
70733;SDS011;58320;48.804;9.252;2022-11-22T00:17:08;7.43;;;3.75;;
70733;SDS011;58320;48.804;9.252;2022-11-22T00:19:33;12.20;;;4.17;;
70733;SDS011;58320;48.804;9.252;2022-11-22T00:22:00;10.25;;;4.35;;
70733;SDS011;58320;48.804;9.252;2022-11-22T00:24:26;10.52;;;4.65;;
70733;SDS011;58320;48.804;9.252;2022-11-22T00:26:52;10.02;;;4.97;;
70733;SDS011;58320;48.804;9.252;2022-11-22T00:29:17;8.93;;;4.50;;
70733;SDS011;58320;48.804;9.252;2022-11-22T00:31:43;9.55;;;4.40;;
70733;SDS011;58320;48.804;9.252;2022-11-22T00:34:09;9.60;;;5.30;;
70733;SDS011;58320;48.804;9.252;2022-11-22T00:36:35;10.57;;;4.50;;
70733;SDS011;58320;48.804;9.252;2022-11-22T00:39:01;7.65;;;3.70;;
70733;SDS011;58320;48.804;9.252;2022-11-22T00:41:27;10.13;;;3.65;;
70733;SDS011;58320;48.804;9.252;2022-11-22T00:43:52;6.33;;;3.37;;
70733;SDS011;58320;48.804;9.252;2022-11-22T00:46:18;6.72;;;3.70;;
70733;SDS011;58320;48.804;9.252;2022-11-22T00:48:44;10.73;;;5.33;;
70733;SDS011;58320;48.804;9.252;2022-11-22T00:51:09;9.40;;;5.07;;
70733;SDS011;58320;48.804;9.252;2022-11-22T00:53:36;12.80;;;5.38;;
70733;SDS011;58320;48.804;9.252;2022-11-22T00:56:02;9.93;;;5.57;;
70733;SDS011;58320;48.804;9.252;2022-11-22T00:58:28;11.77;;;6.10;;
70733;SDS011;58320;48.804;9.252;2022-11-22T01:00:53;12.30;;;5.70;;
70733;SDS011;58320;48.804;9.252;2022-11-22T01:03:19;10.10;;;4.93;;
70733;SDS011;58320;48.804;9.252;2022-11-22T01:05:46;8.90;;;4.67;;
70733;SDS011;58320;48.804;9.252;2022-11-22T01:08:11;8.65;;;4.53;;
70733;SDS011;58320;48.804;9.252;2022-11-22T01:10:37;10.32;;;5.45;;
70733;SDS011;58320;48.804;9.252;2022-11-22T01:13:03;10.60;;;4.77;;
70733;SDS011;58320;48.804;9.252;2022-11-22T01:15:30;10.13;;;4.55;;
70733;SDS011;58320;48.804;9.252;2022-11-22T01:17:56;9.50;;;4.43;;
70733;SDS011;58320;48.804;9.252;2022-11-22T01:20:22;9.45;;;4.50;;
70733;SDS011;58320;48.804;9.252;2022-11-22T01:22:48;7.93;;;4.67;;
70733;SDS011;58320;48.804;9.252;2022-11-22T01:25:15;10.23;;;4.70;;
70733;SDS011;58320;48.804;9.252;2022-11-22T01:27:40;6.78;;;4.05;;
70733;SDS011;58320;48.804;9.252;2022-11-22T01:30:06;8.60;;;3.57;;
70733;SDS011;58320;48.804;9.252;2022-11-22T01:32:32;7.63;;;3.80;;
70733;SDS011;58320;48.804;9.252;2022-11-22T01:34:58;7.60;;;3.70;;
70733;SDS011;58320;48.804;9.252;2022-11-22T01:37:24;6.70;;;3.80;;
70733;SDS011;58320;48.804;9.252;2022-11-22T01:39:50;7.60;;;3.53;;
70733;SDS011;58320;48.804;9.252;2022-11-22T01:42:15;6.43;;;3.90;;
70733;SDS011;58320;48.804;9.252;2022-11-22T01:44:42;6.63;;;3.40;;
70733;SDS011;58320;48.804;9.252;2022-11-22T01:47:16;5.93;;;3.38;;
70733;SDS011;58320;48.804;9.252;2022-11-22T01:49:53;7.45;;;3.70;;
70733;SDS011;58320;48.804;9.252;2022-11-22T01:52:23;8.00;;;4.00;;
70733;SDS011;58320;48.804;9.252;2022-11-22T01:54:59;8.47;;;3.17;;
70733;SDS011;58320;48.804;9.252;2022-11-22T01:57:33;7.05;;;3.38;;
70733;SDS011;58320;48.804;9.252;2022-11-22T02:00:09;7.72;;;3.72;;
70733;SDS011;58320;48.804;9.252;2022-11-22T02:02:38;7.10;;;2.90;;
70733;SDS011;58320;48.804;9.252;2022-11-22T02:05:07;8.73;;;3.42;;
70733;SDS011;58320;48.804;9.252;2022-11-22T02:07:42;5.33;;;2.90;;
70733;SDS011;58320;48.804;9.252;2022-11-22T02:10:19;6.90;;;3.00;;
70733;SDS011;58320;48.804;9.252;2022-11-22T02:12:49;7.65;;;3.15;;
70733;SDS011;58320;48.804;9.252;2022-11-22T02:15:16;8.45;;;2.85;;
70733;SDS011;58320;48.804;9.252;2022-11-22T02:17:42;5.87;;;2.80;;
70733;SDS011;58320;48.804;9.252;2022-11-22T02:20:07;7.20;;;2.50;;
70733;SDS011;58320;48.804;9.252;2022-11-22T02:22:45;6.93;;;2.42;;
70733;SDS011;58320;48.804;9.252;2022-11-22T02:28:09;5.40;;;2.13;;
70733;SDS011;58320;48.804;9.252;2022-11-22T02:30:38;6.50;;;2.60;;
70733;SDS011;58320;48.804;9.252;2022-11-22T02:33:05;5.80;;;2.75;;
70733;SDS011;58320;48.804;9.252;2022-11-22T02:35:32;6.50;;;2.45;;
70733;SDS011;58320;48.804;9.252;2022-11-22T02:37:59;6.40;;;2.80;;
70733;SDS011;58320;48.804;9.252;2022-11-22T02:40:37;5.60;;;2.77;;
70733;SDS011;58320;48.804;9.252;2022-11-22T02:43:10;5.00;;;2.30;;
70733;SDS011;58320;48.804;9.252;2022-11-22T02:45:42;5.03;;;2.10;;
70733;SDS011;58320;48.804;9.252;2022-11-22T02:48:12;3.97;;;1.98;;
70733;SDS011;58320;48.804;9.252;2022-11-22T02:50:41;5.07;;;2.30;;
70733;SDS011;58320;48.804;9.252;2022-11-22T02:53:07;7.37;;;2.40;;
70733;SDS011;58320;48.804;9.252;2022-11-22T02:55:35;7.47;;;2.40;;
70733;SDS011;58320;48.804;9.252;2022-11-22T02:58:01;5.47;;;2.40;;
70733;SDS011;58320;48.804;9.252;2022-11-22T03:00:29;6.28;;;2.40;;
70733;SDS011;58320;48.804;9.252;2022-11-22T03:02:59;6.57;;;2.40;;
70733;SDS011;58320;48.804;9.252;2022-11-22T03:05:25;6.23;;;2.57;;
70733;SDS011;58320;48.804;9.252;2022-11-22T03:07:51;5.47;;;2.30;;
70733;SDS011;58320;48.804;9.252;2022-11-22T03:10:17;4.18;;;2.30;;
70733;SDS011;58320;48.804;9.252;2022-11-22T03:12:43;5.37;;;2.40;;
70733;SDS011;58320;48.804;9.252;2022-11-22T03:15:08;5.60;;;2.00;;
70733;SDS011;58320;48.804;9.252;2022-11-22T03:17:34;5.28;;;2.03;;
70733;SDS011;58320;48.804;9.252;2022-11-22T03:20:00;4.87;;;2.13;;
70733;SDS011;58320;48.804;9.252;2022-11-22T03:22:26;4.68;;;2.03;;
70733;SDS011;58320;48.804;9.252;2022-11-22T03:24:52;6.80;;;1.98;;
70733;SDS011;58320;48.804;9.252;2022-11-22T03:27:18;5.77;;;2.33;;
70733;SDS011;58320;48.804;9.252;2022-11-22T03:29:43;4.10;;;2.13;;
70733;SDS011;58320;48.804;9.252;2022-11-22T03:32:09;5.33;;;2.50;;
70733;SDS011;58320;48.804;9.252;2022-11-22T03:34:35;4.28;;;1.83;;
70733;SDS011;58320;48.804;9.252;2022-11-22T03:37:01;6.25;;;2.63;;
70733;SDS011;58320;48.804;9.252;2022-11-22T03:39:26;6.07;;;2.30;;
70733;SDS011;58320;48.804;9.252;2022-11-22T03:41:52;4.60;;;2.25;;
70733;SDS011;58320;48.804;9.252;2022-11-22T03:44:20;6.25;;;2.28;;
70733;SDS011;58320;48.804;9.252;2022-11-22T03:46:47;3.67;;;1.77;;
70733;SDS011;58320;48.804;9.252;2022-11-22T03:49:12;4.53;;;2.20;;
70733;SDS011;58320;48.804;9.252;2022-11-22T03:51:38;3.92;;;1.92;;
70733;SDS011;58320;48.804;9.252;2022-11-22T03:54:04;6.17;;;2.33;;
70733;SDS011;58320;48.804;9.252;2022-11-22T03:56:30;5.85;;;2.10;;
70733;SDS011;58320;48.804;9.252;2022-11-22T03:58:56;5.05;;;1.92;;
70733;SDS011;58320;48.804;9.252;2022-11-22T04:01:22;7.20;;;2.00;;
70733;SDS011;58320;48.804;9.252;2022-11-22T04:03:48;4.72;;;2.20;;
70733;SDS011;58320;48.804;9.252;2022-11-22T04:06:13;3.83;;;1.88;;
70733;SDS011;58320;48.804;9.252;2022-11-22T04:08:39;5.83;;;2.00;;
70733;SDS011;58320;48.804;9.252;2022-11-22T04:11:05;4.57;;;1.92;;
70733;SDS011;58320;48.804;9.252;2022-11-22T04:13:31;3.90;;;2.00;;
70733;SDS011;58320;48.804;9.252;2022-11-22T04:16:15;4.22;;;2.00;;
70733;SDS011;58320;48.804;9.252;2022-11-22T04:18:41;4.27;;;1.57;;
70733;SDS011;58320;48.804;9.252;2022-11-22T04:21:07;5.88;;;2.10;;
70733;SDS011;58320;48.804;9.252;2022-11-22T04:23:51;6.13;;;2.20;;
70733;SDS011;58320;48.804;9.252;2022-11-22T04:26:36;4.60;;;1.95;;
70733;SDS011;58320;48.804;9.252;2022-11-22T04:29:02;4.37;;;2.00;;
70733;SDS011;58320;48.804;9.252;2022-11-22T04:31:28;7.00;;;2.22;;
70733;SDS011;58320;48.804;9.252;2022-11-22T04:34:12;6.88;;;2.00;;
70733;SDS011;58320;48.804;9.252;2022-11-22T04:36:38;5.10;;;1.90;;
70733;SDS011;58320;48.804;9.252;2022-11-22T04:39:04;3.78;;;2.05;;
70733;SDS011;58320;48.804;9.252;2022-11-22T04:41:30;5.63;;;1.97;;
70733;SDS011;58320;48.804;9.252;2022-11-22T04:43:55;3.92;;;2.08;;
70733;SDS011;58320;48.804;9.252;2022-11-22T04:46:39;5.25;;;1.95;;
70733;SDS011;58320;48.804;9.252;2022-11-22T04:49:05;7.10;;;2.73;;
70733;SDS011;58320;48.804;9.252;2022-11-22T04:51:31;6.18;;;1.98;;
70733;SDS011;58320;48.804;9.252;2022-11-22T04:54:15;4.55;;;1.95;;
70733;SDS011;58320;48.804;9.252;2022-11-22T04:56:41;4.37;;;1.80;;
70733;SDS011;58320;48.804;9.252;2022-11-22T04:59:06;6.40;;;2.20;;
70733;SDS011;58320;48.804;9.252;2022-11-22T05:01:32;5.75;;;2.05;;
70733;SDS011;58320;48.804;9.252;2022-11-22T05:03:58;4.10;;;1.90;;
70733;SDS011;58320;48.804;9.252;2022-11-22T05:06:24;4.40;;;1.98;;
70733;SDS011;58320;48.804;9.252;2022-11-22T05:08:49;5.30;;;2.10;;
70733;SDS011;58320;48.804;9.252;2022-11-22T05:11:15;5.20;;;2.45;;
70733;SDS011;58320;48.804;9.252;2022-11-22T05:13:42;6.85;;;2.40;;
70733;SDS011;58320;48.804;9.252;2022-11-22T05:16:10;4.45;;;1.90;;
70733;SDS011;58320;48.804;9.252;2022-11-22T05:18:38;4.97;;;2.20;;
70733;SDS011;58320;48.804;9.252;2022-11-22T05:21:08;6.82;;;2.50;;
70733;SDS011;58320;48.804;9.252;2022-11-22T05:23:36;4.85;;;2.15;;
70733;SDS011;58320;48.804;9.252;2022-11-22T05:26:24;8.07;;;2.45;;
70733;SDS011;58320;48.804;9.252;2022-11-22T05:28:55;7.13;;;2.60;;
70733;SDS011;58320;48.804;9.252;2022-11-22T05:31:25;7.50;;;2.33;;
70733;SDS011;58320;48.804;9.252;2022-11-22T05:33:52;5.28;;;2.22;;
70733;SDS011;58320;48.804;9.252;2022-11-22T05:36:21;6.07;;;2.22;;
70733;SDS011;58320;48.804;9.252;2022-11-22T05:38:48;6.72;;;2.25;;
70733;SDS011;58320;48.804;9.252;2022-11-22T05:41:14;5.30;;;2.05;;
70733;SDS011;58320;48.804;9.252;2022-11-22T05:43:41;6.03;;;2.03;;
70733;SDS011;58320;48.804;9.252;2022-11-22T05:48:44;5.53;;;1.77;;
70733;SDS011;58320;48.804;9.252;2022-11-22T05:51:15;6.13;;;1.80;;
70733;SDS011;58320;48.804;9.252;2022-11-22T05:53:43;8.35;;;2.10;;
70733;SDS011;58320;48.804;9.252;2022-11-22T05:56:11;5.40;;;2.07;;
70733;SDS011;58320;48.804;9.252;2022-11-22T05:58:40;4.15;;;1.67;;
70733;SDS011;58320;48.804;9.252;2022-11-22T06:01:08;4.45;;;1.85;;
70733;SDS011;58320;48.804;9.252;2022-11-22T06:03:45;6.80;;;2.65;;
70733;SDS011;58320;48.804;9.252;2022-11-22T06:06:13;7.13;;;2.05;;
70733;SDS011;58320;48.804;9.252;2022-11-22T06:08:40;5.17;;;2.10;;
70733;SDS011;58320;48.804;9.252;2022-11-22T06:13:48;6.28;;;2.20;;
70733;SDS011;58320;48.804;9.252;2022-11-22T06:16:27;5.97;;;1.92;;
70733;SDS011;58320;48.804;9.252;2022-11-22T06:18:53;5.80;;;2.33;;
70733;SDS011;58320;48.804;9.252;2022-11-22T06:21:21;9.13;;;1.77;;
70733;SDS011;58320;48.804;9.252;2022-11-22T06:23:49;7.55;;;2.10;;
70733;SDS011;58320;48.804;9.252;2022-11-22T06:26:16;7.82;;;2.05;;
70733;SDS011;58320;48.804;9.252;2022-11-22T06:28:45;8.75;;;2.40;;
70733;SDS011;58320;48.804;9.252;2022-11-22T06:31:12;4.65;;;1.88;;
70733;SDS011;58320;48.804;9.252;2022-11-22T06:33:41;8.57;;;2.50;;
70733;SDS011;58320;48.804;9.252;2022-11-22T06:36:11;5.68;;;2.17;;
70733;SDS011;58320;48.804;9.252;2022-11-22T06:38:44;6.05;;;2.10;;
70733;SDS011;58320;48.804;9.252;2022-11-22T06:41:11;6.97;;;2.10;;
70733;SDS011;58320;48.804;9.252;2022-11-22T06:43:43;4.80;;;1.98;;
70733;SDS011;58320;48.804;9.252;2022-11-22T06:46:12;8.30;;;2.60;;
70733;SDS011;58320;48.804;9.252;2022-11-22T06:48:39;7.07;;;2.60;;
70733;SDS011;58320;48.804;9.252;2022-11-22T06:51:08;6.03;;;2.50;;
70733;SDS011;58320;48.804;9.252;2022-11-22T06:53:43;6.40;;;2.20;;
70733;SDS011;58320;48.804;9.252;2022-11-22T06:58:42;5.47;;;2.60;;
70733;SDS011;58320;48.804;9.252;2022-11-22T07:01:10;7.00;;;2.88;;
70733;SDS011;58320;48.804;9.252;2022-11-22T07:03:43;8.30;;;2.38;;
70733;SDS011;58320;48.804;9.252;2022-11-22T07:06:10;9.65;;;2.35;;
70733;SDS011;58320;48.804;9.252;2022-11-22T07:08:38;10.18;;;3.15;;
70733;SDS011;58320;48.804;9.252;2022-11-22T07:11:05;9.40;;;4.60;;
70733;SDS011;58320;48.804;9.252;2022-11-22T07:13:34;11.15;;;3.25;;
70733;SDS011;58320;48.804;9.252;2022-11-22T07:16:01;8.88;;;3.75;;
70733;SDS011;58320;48.804;9.252;2022-11-22T07:18:29;15.68;;;6.40;;
70733;SDS011;58320;48.804;9.252;2022-11-22T07:21:00;9.68;;;4.18;;
70733;SDS011;58320;48.804;9.252;2022-11-22T07:23:28;11.70;;;3.10;;
70733;SDS011;58320;48.804;9.252;2022-11-22T07:25:54;7.70;;;3.17;;
70733;SDS011;58320;48.804;9.252;2022-11-22T07:28:21;9.18;;;4.10;;
70733;SDS011;58320;48.804;9.252;2022-11-22T07:30:47;14.02;;;4.97;;
70733;SDS011;58320;48.804;9.252;2022-11-22T07:33:13;10.18;;;4.13;;
70733;SDS011;58320;48.804;9.252;2022-11-22T07:35:38;9.23;;;3.00;;
70733;SDS011;58320;48.804;9.252;2022-11-22T07:38:04;10.05;;;3.30;;
70733;SDS011;58320;48.804;9.252;2022-11-22T07:40:30;10.63;;;2.90;;
70733;SDS011;58320;48.804;9.252;2022-11-22T07:42:56;11.73;;;2.80;;
70733;SDS011;58320;48.804;9.252;2022-11-22T07:45:22;12.48;;;3.20;;
70733;SDS011;58320;48.804;9.252;2022-11-22T07:47:48;13.27;;;3.10;;
70733;SDS011;58320;48.804;9.252;2022-11-22T07:50:14;9.63;;;3.03;;
70733;SDS011;58320;48.804;9.252;2022-11-22T07:52:40;10.77;;;3.85;;
70733;SDS011;58320;48.804;9.252;2022-11-22T07:55:06;6.50;;;3.33;;
70733;SDS011;58320;48.804;9.252;2022-11-22T07:57:32;7.53;;;3.20;;
70733;SDS011;58320;48.804;9.252;2022-11-22T07:59:58;8.63;;;2.97;;
70733;SDS011;58320;48.804;9.252;2022-11-22T08:02:24;8.55;;;2.75;;
70733;SDS011;58320;48.804;9.252;2022-11-22T08:04:51;7.40;;;2.92;;
70733;SDS011;58320;48.804;9.252;2022-11-22T08:07:17;14.30;;;3.75;;
70733;SDS011;58320;48.804;9.252;2022-11-22T08:09:43;7.93;;;3.50;;
70733;SDS011;58320;48.804;9.252;2022-11-22T08:12:09;14.85;;;4.82;;
70733;SDS011;58320;48.804;9.252;2022-11-22T08:14:35;6.87;;;3.03;;
70733;SDS011;58320;48.804;9.252;2022-11-22T08:17:01;7.35;;;3.25;;
70733;SDS011;58320;48.804;9.252;2022-11-22T08:19:27;11.18;;;2.90;;
70733;SDS011;58320;48.804;9.252;2022-11-22T08:21:54;7.50;;;2.70;;
70733;SDS011;58320;48.804;9.252;2022-11-22T08:24:20;8.03;;;2.90;;
70733;SDS011;58320;48.804;9.252;2022-11-22T08:26:46;8.18;;;3.70;;
70733;SDS011;58320;48.804;9.252;2022-11-22T08:29:12;8.63;;;4.30;;
70733;SDS011;58320;48.804;9.252;2022-11-22T08:31:38;9.65;;;3.80;;
70733;SDS011;58320;48.804;9.252;2022-11-22T08:34:04;8.80;;;3.73;;
70733;SDS011;58320;48.804;9.252;2022-11-22T08:36:30;8.70;;;3.87;;
70733;SDS011;58320;48.804;9.252;2022-11-22T08:38:57;6.97;;;3.80;;
70733;SDS011;58320;48.804;9.252;2022-11-22T08:41:23;12.15;;;4.82;;
70733;SDS011;58320;48.804;9.252;2022-11-22T08:43:50;8.68;;;3.60;;
70733;SDS011;58320;48.804;9.252;2022-11-22T08:46:17;9.30;;;3.30;;
70733;SDS011;58320;48.804;9.252;2022-11-22T08:48:43;8.30;;;3.33;;
70733;SDS011;58320;48.804;9.252;2022-11-22T08:51:11;7.43;;;3.50;;
70733;SDS011;58320;48.804;9.252;2022-11-22T08:53:39;10.50;;;3.60;;
70733;SDS011;58320;48.804;9.252;2022-11-22T08:56:09;11.38;;;3.00;;
70733;SDS011;58320;48.804;9.252;2022-11-22T08:58:39;8.00;;;3.15;;
70733;SDS011;58320;48.804;9.252;2022-11-22T09:01:06;10.33;;;3.23;;
70733;SDS011;58320;48.804;9.252;2022-11-22T09:03:40;10.15;;;3.10;;
70733;SDS011;58320;48.804;9.252;2022-11-22T09:06:09;11.25;;;3.38;;
70733;SDS011;58320;48.804;9.252;2022-11-22T09:08:37;9.70;;;3.25;;
70733;SDS011;58320;48.804;9.252;2022-11-22T09:11:05;7.88;;;3.13;;
70733;SDS011;58320;48.804;9.252;2022-11-22T09:13:34;9.40;;;3.10;;
70733;SDS011;58320;48.804;9.252;2022-11-22T09:16:04;11.80;;;3.38;;
70733;SDS011;58320;48.804;9.252;2022-11-22T09:18:41;9.75;;;3.33;;
70733;SDS011;58320;48.804;9.252;2022-11-22T09:21:09;9.30;;;3.00;;
70733;SDS011;58320;48.804;9.252;2022-11-22T09:23:41;9.20;;;3.08;;
70733;SDS011;58320;48.804;9.252;2022-11-22T09:26:11;12.30;;;3.13;;
70733;SDS011;58320;48.804;9.252;2022-11-22T09:28:43;7.13;;;2.58;;
70733;SDS011;58320;48.804;9.252;2022-11-22T09:31:10;9.82;;;2.70;;
70733;SDS011;58320;48.804;9.252;2022-11-22T09:33:39;6.90;;;2.35;;
70733;SDS011;58320;48.804;9.252;2022-11-22T09:36:19;8.77;;;2.67;;
70733;SDS011;58320;48.804;9.252;2022-11-22T09:38:47;7.87;;;2.73;;
70733;SDS011;58320;48.804;9.252;2022-11-22T09:53:03;7.20;;;1.83;;
70733;SDS011;58320;48.804;9.252;2022-11-22T09:58:09;7.65;;;2.55;;
70733;SDS011;58320;48.804;9.252;2022-11-22T10:00:40;10.20;;;2.70;;
70733;SDS011;58320;48.804;9.252;2022-11-22T10:03:21;8.63;;;2.53;;
70733;SDS011;58320;48.804;9.252;2022-11-22T10:06:07;6.65;;;2.60;;
70733;SDS011;58320;48.804;9.252;2022-11-22T10:17:19;6.37;;;1.60;;
70733;SDS011;58320;48.804;9.252;2022-11-22T10:20:26;6.68;;;1.70;;
70733;SDS011;58320;48.804;9.252;2022-11-22T10:22:54;6.15;;;1.83;;
70733;SDS011;58320;48.804;9.252;2022-11-22T10:28:40;5.93;;;1.80;;
70733;SDS011;58320;48.804;9.252;2022-11-22T10:42:17;8.27;;;2.17;;
70733;SDS011;58320;48.804;9.252;2022-11-22T10:53:36;7.20;;;2.05;;
70733;SDS011;58320;48.804;9.252;2022-11-22T10:56:29;6.57;;;1.70;;
70733;SDS011;58320;48.804;9.252;2022-11-22T11:04:58;6.13;;;1.43;;
70733;SDS011;58320;48.804;9.252;2022-11-22T11:07:28;4.82;;;1.38;;
70733;SDS011;58320;48.804;9.252;2022-11-22T11:10:36;9.02;;;1.83;;
70733;SDS011;58320;48.804;9.252;2022-11-22T11:12:58;4.22;;;1.20;;
70733;SDS011;58320;48.804;9.252;2022-11-22T11:15:34;10.18;;;2.00;;
70733;SDS011;58320;48.804;9.252;2022-11-22T11:18:20;5.43;;;1.40;;
70733;SDS011;58320;48.804;9.252;2022-11-22T11:21:11;6.85;;;1.23;;
70733;SDS011;58320;48.804;9.252;2022-11-22T11:23:39;6.00;;;1.20;;
70733;SDS011;58320;48.804;9.252;2022-11-22T11:26:19;6.05;;;1.20;;
70733;SDS011;58320;48.804;9.252;2022-11-22T11:34:31;4.10;;;1.00;;
70733;SDS011;58320;48.804;9.252;2022-11-22T11:36:58;4.50;;;1.20;;
70733;SDS011;58320;48.804;9.252;2022-11-22T11:39:30;6.38;;;1.20;;
70733;SDS011;58320;48.804;9.252;2022-11-22T11:41:58;4.63;;;1.30;;
70733;SDS011;58320;48.804;9.252;2022-11-22T11:46:59;6.20;;;1.52;;
70733;SDS011;58320;48.804;9.252;2022-11-22T11:49:30;6.72;;;1.60;;
70733;SDS011;58320;48.804;9.252;2022-11-22T11:52:01;5.57;;;1.08;;
70733;SDS011;58320;48.804;9.252;2022-11-22T11:54:42;6.43;;;1.30;;
70733;SDS011;58320;48.804;9.252;2022-11-22T11:59:48;7.63;;;1.67;;
70733;SDS011;58320;48.804;9.252;2022-11-22T12:07:45;7.65;;;1.25;;
70733;SDS011;58320;48.804;9.252;2022-11-22T12:13:23;6.72;;;1.25;;
70733;SDS011;58320;48.804;9.252;2022-11-22T12:18:47;7.30;;;0.93;;
70733;SDS011;58320;48.804;9.252;2022-11-22T12:21:50;7.80;;;1.05;;
70733;SDS011;58320;48.804;9.252;2022-11-22T12:24:49;4.10;;;1.00;;
70733;SDS011;58320;48.804;9.252;2022-11-22T12:27:23;5.38;;;1.40;;
70733;SDS011;58320;48.804;9.252;2022-11-22T12:29:49;7.38;;;1.20;;
70733;SDS011;58320;48.804;9.252;2022-11-22T12:32:28;5.90;;;1.25;;
70733;SDS011;58320;48.804;9.252;2022-11-22T12:35:04;9.40;;;1.38;;
70733;SDS011;58320;48.804;9.252;2022-11-22T12:37:41;5.70;;;0.90;;
70733;SDS011;58320;48.804;9.252;2022-11-22T12:42:57;9.35;;;1.30;;
70733;SDS011;58320;48.804;9.252;2022-11-22T12:45:48;6.10;;;1.00;;
70733;SDS011;58320;48.804;9.252;2022-11-22T12:48:24;5.38;;;1.25;;
70733;SDS011;58320;48.804;9.252;2022-11-22T12:51:20;4.50;;;1.00;;
70733;SDS011;58320;48.804;9.252;2022-11-22T12:54:04;4.95;;;0.93;;
70733;SDS011;58320;48.804;9.252;2022-11-22T12:56:46;6.45;;;1.13;;
70733;SDS011;58320;48.804;9.252;2022-11-22T13:02:31;5.28;;;0.93;;
70733;SDS011;58320;48.804;9.252;2022-11-22T13:07:51;10.15;;;1.80;;
70733;SDS011;58320;48.804;9.252;2022-11-22T13:13:25;7.13;;;1.23;;
70733;SDS011;58320;48.804;9.252;2022-11-22T13:16:01;6.57;;;0.90;;
70733;SDS011;58320;48.804;9.252;2022-11-22T13:18:45;5.73;;;1.27;;
70733;SDS011;58320;48.804;9.252;2022-11-22T13:24:55;4.57;;;1.02;;
70733;SDS011;58320;48.804;9.252;2022-11-22T13:27:45;7.78;;;1.30;;
70733;SDS011;58320;48.804;9.252;2022-11-22T13:32:49;3.60;;;0.80;;
70733;SDS011;58320;48.804;9.252;2022-11-22T13:35:31;5.57;;;1.05;;
70733;SDS011;58320;48.804;9.252;2022-11-22T13:38:03;6.15;;;1.05;;
70733;SDS011;58320;48.804;9.252;2022-11-22T13:40:44;5.80;;;0.90;;
70733;SDS011;58320;48.804;9.252;2022-11-22T13:51:05;4.57;;;0.80;;
70733;SDS011;58320;48.804;9.252;2022-11-22T13:53:36;3.03;;;0.80;;
70733;SDS011;58320;48.804;9.252;2022-11-22T14:04:34;3.65;;;0.60;;
70733;SDS011;58320;48.804;9.252;2022-11-22T14:32:46;2.83;;;0.80;;
70733;SDS011;58320;48.804;9.252;2022-11-22T14:35:23;5.25;;;1.00;;
70733;SDS011;58320;48.804;9.252;2022-11-22T14:38:00;4.37;;;0.83;;
70733;SDS011;58320;48.804;9.252;2022-11-22T14:40:48;3.45;;;0.80;;
70733;SDS011;58320;48.804;9.252;2022-11-22T14:45:52;4.30;;;0.75;;
70733;SDS011;58320;48.804;9.252;2022-11-22T14:48:28;2.65;;;0.73;;
70733;SDS011;58320;48.804;9.252;2022-11-22T14:56:22;3.63;;;1.10;;
70733;SDS011;58320;48.804;9.252;2022-11-22T14:59:00;4.63;;;1.40;;
70733;SDS011;58320;48.804;9.252;2022-11-22T15:02:23;5.65;;;1.23;;
70733;SDS011;58320;48.804;9.252;2022-11-22T15:16:15;3.67;;;1.08;;
70733;SDS011;58320;48.804;9.252;2022-11-22T15:18:51;2.97;;;1.00;;
70733;SDS011;58320;48.804;9.252;2022-11-22T15:24:00;2.75;;;0.98;;
70733;SDS011;58320;48.804;9.252;2022-11-22T15:26:28;3.53;;;0.93;;
70733;SDS011;58320;48.804;9.252;2022-11-22T15:28:56;3.47;;;1.10;;
70733;SDS011;58320;48.804;9.252;2022-11-22T15:31:24;4.13;;;1.10;;
70733;SDS011;58320;48.804;9.252;2022-11-22T15:33:55;4.65;;;1.10;;
70733;SDS011;58320;48.804;9.252;2022-11-22T15:39:26;5.38;;;0.80;;
70733;SDS011;58320;48.804;9.252;2022-11-22T15:41:53;3.97;;;1.25;;
70733;SDS011;58320;48.804;9.252;2022-11-22T15:44:21;2.77;;;0.90;;
70733;SDS011;58320;48.804;9.252;2022-11-22T15:46:48;3.58;;;1.00;;
70733;SDS011;58320;48.804;9.252;2022-11-22T15:49:15;3.72;;;1.30;;
70733;SDS011;58320;48.804;9.252;2022-11-22T15:51:55;4.35;;;1.10;;
70733;SDS011;58320;48.804;9.252;2022-11-22T15:54:24;3.67;;;1.05;;
70733;SDS011;58320;48.804;9.252;2022-11-22T15:57:17;5.27;;;1.20;;
70733;SDS011;58320;48.804;9.252;2022-11-22T16:00:00;2.80;;;0.90;;
70733;SDS011;58320;48.804;9.252;2022-11-22T16:02:32;4.00;;;0.65;;
70733;SDS011;58320;48.804;9.252;2022-11-22T16:05:03;3.75;;;0.95;;
70733;SDS011;58320;48.804;9.252;2022-11-22T16:07:33;2.70;;;0.90;;
70733;SDS011;58320;48.804;9.252;2022-11-22T16:12:45;6.60;;;1.05;;
70733;SDS011;58320;48.804;9.252;2022-11-22T16:17:48;4.32;;;1.13;;
70733;SDS011;58320;48.804;9.252;2022-11-22T16:25:33;3.42;;;1.10;;
70733;SDS011;58320;48.804;9.252;2022-11-22T16:28:04;3.42;;;1.45;;
70733;SDS011;58320;48.804;9.252;2022-11-22T16:30:54;3.72;;;1.17;;
70733;SDS011;58320;48.804;9.252;2022-11-22T16:33:22;3.78;;;1.45;;
70733;SDS011;58320;48.804;9.252;2022-11-22T16:35:52;3.77;;;1.17;;
70733;SDS011;58320;48.804;9.252;2022-11-22T16:38:20;7.50;;;1.20;;
70733;SDS011;58320;48.804;9.252;2022-11-22T16:40:47;5.60;;;1.30;;
70733;SDS011;58320;48.804;9.252;2022-11-22T16:43:14;4.45;;;1.20;;
70733;SDS011;58320;48.804;9.252;2022-11-22T16:45:40;5.60;;;1.60;;
70733;SDS011;58320;48.804;9.252;2022-11-22T16:48:17;4.23;;;1.40;;
70733;SDS011;58320;48.804;9.252;2022-11-22T16:50:51;4.65;;;1.20;;
70733;SDS011;58320;48.804;9.252;2022-11-22T16:53:22;3.58;;;1.05;;
70733;SDS011;58320;48.804;9.252;2022-11-22T16:55:48;4.00;;;1.33;;
70733;SDS011;58320;48.804;9.252;2022-11-22T17:00:46;4.23;;;1.53;;
70733;SDS011;58320;48.804;9.252;2022-11-22T17:03:14;4.70;;;1.40;;
70733;SDS011;58320;48.804;9.252;2022-11-22T17:05:44;5.30;;;1.33;;
70733;SDS011;58320;48.804;9.252;2022-11-22T17:08:11;3.83;;;1.42;;
70733;SDS011;58320;48.804;9.252;2022-11-22T17:10:43;4.15;;;1.52;;
70733;SDS011;58320;48.804;9.252;2022-11-22T17:13:14;5.83;;;1.20;;
70733;SDS011;58320;48.804;9.252;2022-11-22T17:15:52;4.28;;;1.40;;
70733;SDS011;58320;48.804;9.252;2022-11-22T17:18:19;5.63;;;1.60;;
70733;SDS011;58320;48.804;9.252;2022-11-22T17:20:46;4.55;;;1.20;;
70733;SDS011;58320;48.804;9.252;2022-11-22T17:23:34;3.72;;;1.20;;
70733;SDS011;58320;48.804;9.252;2022-11-22T17:26:00;3.37;;;1.10;;
70733;SDS011;58320;48.804;9.252;2022-11-22T17:28:27;4.13;;;1.55;;
70733;SDS011;58320;48.804;9.252;2022-11-22T17:30:53;4.75;;;1.08;;
70733;SDS011;58320;48.804;9.252;2022-11-22T17:33:22;3.42;;;1.50;;
70733;SDS011;58320;48.804;9.252;2022-11-22T17:35:49;4.70;;;1.30;;
70733;SDS011;58320;48.804;9.252;2022-11-22T17:38:16;4.30;;;1.17;;
70733;SDS011;58320;48.804;9.252;2022-11-22T17:40:42;2.83;;;1.33;;
70733;SDS011;58320;48.804;9.252;2022-11-22T17:43:11;4.20;;;1.10;;
70733;SDS011;58320;48.804;9.252;2022-11-22T17:45:43;5.07;;;1.40;;
70733;SDS011;58320;48.804;9.252;2022-11-22T17:48:10;3.92;;;1.10;;
70733;SDS011;58320;48.804;9.252;2022-11-22T17:50:36;3.70;;;1.15;;
70733;SDS011;58320;48.804;9.252;2022-11-22T17:53:03;3.47;;;1.15;;
70733;SDS011;58320;48.804;9.252;2022-11-22T17:55:29;3.50;;;1.10;;
70733;SDS011;58320;48.804;9.252;2022-11-22T17:57:55;3.10;;;0.90;;
70733;SDS011;58320;48.804;9.252;2022-11-22T18:00:21;3.58;;;1.00;;
70733;SDS011;58320;48.804;9.252;2022-11-22T18:02:47;4.18;;;1.05;;
70733;SDS011;58320;48.804;9.252;2022-11-22T18:05:13;3.73;;;1.00;;